createdAt,value
2023-03-21T00:02:18.295Z,5.95
2023-03-21T00:04:52.601Z,5.94
2023-03-21T00:07:23.974Z,5.92
2023-03-21T00:10:04.789Z,5.92
2023-03-21T00:12:31.335Z,5.91
2023-03-21T00:15:04.885Z,5.93
2023-03-21T00:17:38.934Z,5.93
2023-03-21T00:20:16.583Z,5.85
2023-03-21T00:22:49.014Z,5.85
2023-03-21T00:25:39.100Z,5.95
2023-03-21T00:28:11.513Z,5.95
2023-03-21T00:30:43.308Z,5.91
2023-03-21T00:36:01.831Z,5.89
2023-03-21T00:38:27.017Z,5.87
2023-03-21T00:41:04.672Z,5.88
2023-03-21T00:43:33.015Z,5.87
2023-03-21T00:46:05.906Z,5.89
2023-03-21T00:48:38.010Z,5.89
2023-03-21T00:51:22.519Z,5.91
2023-03-21T00:53:58.584Z,5.92
2023-03-21T00:56:32.685Z,5.93
2023-03-21T00:59:04.944Z,5.92
2023-03-21T01:01:37.398Z,5.92
2023-03-21T01:04:12.930Z,5.92
2023-03-21T01:06:45.930Z,5.92
2023-03-21T01:09:20.831Z,5.91
2023-03-21T01:11:52.986Z,5.89
2023-03-21T01:14:25.048Z,5.87
2023-03-21T01:16:58.075Z,5.86
2023-03-21T01:19:48.319Z,5.87
2023-03-21T01:22:04.664Z,5.87
2023-03-21T01:24:40.529Z,5.85
2023-03-21T01:27:10.603Z,5.84
2023-03-21T01:29:42.732Z,5.83
2023-03-21T01:32:14.756Z,5.83
2023-03-21T01:34:46.744Z,5.81
2023-03-21T01:37:20.084Z,5.81
2023-03-21T01:39:53.796Z,5.78
2023-03-21T01:42:26.465Z,5.79
2023-03-21T01:45:01.445Z,5.79
2023-03-21T01:47:40.661Z,5.79
2023-03-21T01:50:23.384Z,5.79
2023-03-21T01:52:59.945Z,5.77
2023-03-21T01:55:33.859Z,5.77
2023-03-21T01:58:14.206Z,5.77
2023-03-21T02:00:51.178Z,5.76
2023-03-21T02:03:42.516Z,5.77
2023-03-21T02:06:29.496Z,5.77
2023-03-21T02:09:05.842Z,5.77
2023-03-21T02:11:38.986Z,5.76
2023-03-21T02:14:17.761Z,5.75
2023-03-21T02:17:13.250Z,5.75
2023-03-21T02:20:11.852Z,5.74
2023-03-21T02:22:53.218Z,5.75
2023-03-21T02:25:33.577Z,5.75
2023-03-21T02:28:14.603Z,5.75
2023-03-21T02:31:01.951Z,5.77
2023-03-21T02:33:57.661Z,5.78
2023-03-21T02:36:54.885Z,5.77
2023-03-21T02:39:38.701Z,5.81
2023-03-21T02:42:28.387Z,5.88
2023-03-21T02:45:12.416Z,5.84
2023-03-21T02:47:52.789Z,5.81
2023-03-21T02:50:48.520Z,5.79
2023-03-21T02:56:13.030Z,5.79
2023-03-21T02:58:47.890Z,5.76
2023-03-21T03:01:27.197Z,5.76
2023-03-21T03:03:59.979Z,5.75
2023-03-21T03:06:40.341Z,5.72
2023-03-21T03:09:27.490Z,5.72
2023-03-21T03:12:08.131Z,5.71
2023-03-21T03:15:00.243Z,5.72
2023-03-21T03:17:27.959Z,5.71
2023-03-21T03:20:16.470Z,5.69
2023-03-21T03:23:06.650Z,5.66
2023-03-21T03:25:50.512Z,5.64
2023-03-21T03:28:25.796Z,5.66
2023-03-21T03:31:09.096Z,5.66
2023-03-21T03:33:37.350Z,5.64
2023-03-21T03:36:28.438Z,5.65
2023-03-21T03:38:49.112Z,5.64
2023-03-21T03:41:25.679Z,5.64
2023-03-21T03:44:02.574Z,5.64
2023-03-21T03:46:39.223Z,5.68
2023-03-21T03:49:20.513Z,5.68
2023-03-21T03:52:01.332Z,5.69
2023-03-21T03:54:40.882Z,5.69
2023-03-21T03:57:14.528Z,5.71
2023-03-21T03:59:47.969Z,5.74
2023-03-21T04:02:39.923Z,5.69
2023-03-21T04:05:13.099Z,5.78
2023-03-21T04:07:45.249Z,5.79
2023-03-21T04:10:17.544Z,5.80
2023-03-21T04:12:50.368Z,5.81
2023-03-21T04:15:24.082Z,5.84
2023-03-21T04:17:57.955Z,5.88
2023-03-21T04:20:37.044Z,5.96
2023-03-21T04:23:04.437Z,5.97
2023-03-21T04:25:44.692Z,6.00
2023-03-21T04:28:12.670Z,6.03
2023-03-21T04:31:00.434Z,6.07
2023-03-21T04:33:22.009Z,6.07
2023-03-21T04:35:59.498Z,6.15
2023-03-21T04:38:34.046Z,6.20
2023-03-21T04:41:07.689Z,6.24
2023-03-21T04:43:40.217Z,6.33
2023-03-21T04:46:12.620Z,6.40
2023-03-21T04:48:44.628Z,6.46
2023-03-21T04:51:17.519Z,6.56
2023-03-21T04:53:51.414Z,6.62
2023-03-21T04:56:24.952Z,6.70
2023-03-21T04:58:57.661Z,6.76
2023-03-21T05:01:33.382Z,6.84
2023-03-21T05:04:06.313Z,6.90
2023-03-21T05:06:39.145Z,6.96
2023-03-21T05:09:11.925Z,6.99
2023-03-21T05:11:44.381Z,6.98
2023-03-21T05:14:20.903Z,6.96
2023-03-21T05:16:57.582Z,6.93
2023-03-21T05:19:38.903Z,6.89
2023-03-21T05:22:14.346Z,6.87
2023-03-21T05:24:51.195Z,6.85
2023-03-21T05:27:36.657Z,6.84
2023-03-21T05:30:19.026Z,6.81
2023-03-21T05:32:53.194Z,6.78
2023-03-21T05:35:26.879Z,6.78
2023-03-21T05:38:00.551Z,6.79
2023-03-21T05:40:34.682Z,6.85
2023-03-21T05:43:07.539Z,6.95
2023-03-21T05:45:52.769Z,7.03
2023-03-21T05:48:25.759Z,7.14
2023-03-21T05:51:06.310Z,7.24
2023-03-21T05:53:38.681Z,7.35
2023-03-21T05:56:11.515Z,7.43
2023-03-21T05:58:45.534Z,7.53
2023-03-21T06:01:17.602Z,7.62
2023-03-21T06:04:04.221Z,7.68
2023-03-21T06:06:36.837Z,7.71
2023-03-21T06:09:09.575Z,7.70
2023-03-21T06:11:46.081Z,7.70
2023-03-21T06:14:31.728Z,7.75
2023-03-21T06:17:17.301Z,7.78
2023-03-21T06:19:54.009Z,7.85
2023-03-21T06:22:31.772Z,7.91
2023-03-21T06:25:07.666Z,7.96
2023-03-21T06:27:40.365Z,7.97
2023-03-21T06:30:13.119Z,7.94
2023-03-21T06:32:46.941Z,8.00
2023-03-21T06:35:21.545Z,8.09
2023-03-21T06:37:53.705Z,8.23
2023-03-21T06:40:26.437Z,8.32
2023-03-21T06:42:59.796Z,8.40
2023-03-21T06:45:31.806Z,8.48
2023-03-21T06:48:04.632Z,8.57
2023-03-21T06:50:38.497Z,8.61
2023-03-21T06:53:11.246Z,8.62
2023-03-21T06:55:46.816Z,8.70
2023-03-21T06:58:19.464Z,8.85
2023-03-21T07:00:52.182Z,8.99
2023-03-21T07:03:24.727Z,9.15
2023-03-21T07:05:56.972Z,9.27
2023-03-21T07:08:30.703Z,9.46
2023-03-21T07:11:02.945Z,9.93
2023-03-21T07:13:35.316Z,10.37
2023-03-21T07:16:10.392Z,10.70
2023-03-21T07:18:42.722Z,10.90
2023-03-21T07:21:16.343Z,10.89
2023-03-21T07:23:50.476Z,10.83
2023-03-21T07:26:23.154Z,10.76
2023-03-21T07:28:55.894Z,10.68
2023-03-21T07:31:30.439Z,10.62
2023-03-21T07:34:02.967Z,10.53
2023-03-21T07:36:37.174Z,10.44
2023-03-21T07:39:11.197Z,10.30
2023-03-21T07:41:43.882Z,10.15
2023-03-21T07:44:17.585Z,9.93
2023-03-21T07:46:49.662Z,9.75
2023-03-21T07:49:23.190Z,9.53
2023-03-21T07:51:56.182Z,9.34
2023-03-21T07:54:29.043Z,9.28
2023-03-21T07:57:01.395Z,9.36
2023-03-21T07:59:34.124Z,9.53
2023-03-21T08:02:07.393Z,9.68
2023-03-21T08:04:40.310Z,9.93
2023-03-21T08:07:12.795Z,10.19
2023-03-21T08:09:45.653Z,10.39
2023-03-21T08:12:18.498Z,10.61
2023-03-21T08:14:50.982Z,10.80
2023-03-21T08:17:23.149Z,11.03
2023-03-21T08:19:55.555Z,11.19
2023-03-21T08:22:27.833Z,11.34
2023-03-21T08:25:00.154Z,11.37
2023-03-21T08:27:33.285Z,11.30
2023-03-21T08:30:06.075Z,11.27
2023-03-21T08:32:38.817Z,11.18
2023-03-21T08:35:13.018Z,11.11
2023-03-21T08:37:45.492Z,11.07
2023-03-21T08:40:20.725Z,11.13
2023-03-21T08:42:53.077Z,11.28
2023-03-21T08:45:25.674Z,11.33
2023-03-21T08:47:58.446Z,11.31
2023-03-21T08:50:31.951Z,11.28
2023-03-21T08:53:04.121Z,11.29
2023-03-21T08:55:36.457Z,11.39
2023-03-21T08:58:08.842Z,11.42
2023-03-21T09:00:41.608Z,11.34
2023-03-21T09:03:14.310Z,11.34
2023-03-21T09:05:46.661Z,11.38
2023-03-21T09:08:20.420Z,11.53
2023-03-21T09:10:54.982Z,11.76
2023-03-21T09:13:27.233Z,12.03
2023-03-21T09:16:01.056Z,12.35
2023-03-21T09:18:40.900Z,12.67
2023-03-21T09:21:14.912Z,12.99
2023-03-21T09:23:47.274Z,13.25
2023-03-21T09:26:20.505Z,13.38
2023-03-21T09:28:53.868Z,13.23
2023-03-21T09:31:26.215Z,13.03
2023-03-21T09:33:58.758Z,12.80
2023-03-21T09:36:32.119Z,12.62
2023-03-21T09:39:05.927Z,12.54
2023-03-21T09:41:50.405Z,12.59
2023-03-21T09:44:44.777Z,12.63
2023-03-21T09:47:24.761Z,12.73
2023-03-21T09:50:14.188Z,12.81
2023-03-21T09:53:00.432Z,12.86
2023-03-21T09:55:35.893Z,12.90
2023-03-21T09:58:44.737Z,12.91
2023-03-21T10:01:36.109Z,13.00
2023-03-21T10:04:10.850Z,13.14
2023-03-21T10:06:43.172Z,13.26
2023-03-21T10:09:24.747Z,13.68
2023-03-21T10:12:07.646Z,13.49
2023-03-21T10:14:45.480Z,13.54
2023-03-21T10:17:35.232Z,13.60
2023-03-21T10:20:19.682Z,13.67
2023-03-21T10:22:55.251Z,13.74
2023-03-21T10:25:36.547Z,13.73
2023-03-21T10:28:11.163Z,13.70
2023-03-21T10:30:43.940Z,13.54
2023-03-21T10:33:18.605Z,13.71
2023-03-21T10:35:57.359Z,13.18
2023-03-21T10:38:30.790Z,13.02
2023-03-21T10:41:02.902Z,13.03
2023-03-21T10:43:40.964Z,13.15
2023-03-21T10:46:21.842Z,13.25
2023-03-21T10:48:55.789Z,13.12
2023-03-21T10:51:30.976Z,12.97
2023-03-21T10:54:08.749Z,12.88
2023-03-21T10:56:43.940Z,12.76
2023-03-21T10:59:23.715Z,12.63
2023-03-21T11:01:58.133Z,12.41
2023-03-21T11:04:31.060Z,12.14
2023-03-21T11:07:11.077Z,12.22
2023-03-21T11:09:57.990Z,11.69
2023-03-21T11:12:39.443Z,11.58
2023-03-21T11:15:31.142Z,11.59
2023-03-21T11:18:06.249Z,11.74
2023-03-21T11:20:41.586Z,12.02
2023-03-21T11:23:14.808Z,12.18
2023-03-21T11:25:49.859Z,12.24
2023-03-21T11:28:24.462Z,12.19
2023-03-21T11:30:59.959Z,12.06
2023-03-21T11:33:38.659Z,11.95
2023-03-21T11:36:23.093Z,11.88
2023-03-21T11:39:01.234Z,11.95
2023-03-21T11:41:35.758Z,11.84
2023-03-21T11:44:10.148Z,11.96
2023-03-21T11:46:42.487Z,12.18
2023-03-21T11:49:14.626Z,12.45
2023-03-21T11:51:58.600Z,12.58
2023-03-21T11:54:36.267Z,12.63
2023-03-21T11:57:12.079Z,12.56
2023-03-21T11:59:59.122Z,12.41
2023-03-21T12:02:52.682Z,12.30
2023-03-21T12:05:36.979Z,12.24
2023-03-21T12:08:29.940Z,12.18
2023-03-21T12:11:08.010Z,12.15
2023-03-21T12:13:54.712Z,12.19
2023-03-21T12:16:30.625Z,12.23
2023-03-21T12:19:29.654Z,12.27
2023-03-21T12:22:23.585Z,12.41
2023-03-21T12:25:01.268Z,12.60
2023-03-21T12:27:37.776Z,12.69
2023-03-21T12:30:33.368Z,12.72
2023-03-21T12:33:26.157Z,12.67
2023-03-21T12:36:18.227Z,12.58
2023-03-21T12:39:02.451Z,12.56
2023-03-21T12:41:43.393Z,12.99
2023-03-21T12:44:20.456Z,14.34
2023-03-21T12:46:58.235Z,16.20
2023-03-21T12:49:36.173Z,17.98
2023-03-21T12:52:11.208Z,19.79
2023-03-21T12:54:46.385Z,21.04
2023-03-21T12:57:24.616Z,22.39
2023-03-21T12:59:59.744Z,22.95
2023-03-21T13:02:36.422Z,23.10
2023-03-21T13:05:33.424Z,23.81
2023-03-21T13:08:08.347Z,24.63
2023-03-21T13:10:43.062Z,25.42
2023-03-21T13:13:20.510Z,25.87
2023-03-21T13:16:01.283Z,26.02
2023-03-21T13:19:03.402Z,26.21
2023-03-21T13:21:53.153Z,26.70
2023-03-21T13:24:36.651Z,27.05
2023-03-21T13:27:17.351Z,27.45
2023-03-21T13:29:55.458Z,27.81
2023-03-21T13:32:33.249Z,28.11
2023-03-21T13:35:28.841Z,28.48
2023-03-21T13:38:10.878Z,28.84
2023-03-21T13:40:52.040Z,29.05
2023-03-21T13:43:48.140Z,29.11
2023-03-21T13:46:43.264Z,29.15
2023-03-21T13:49:14.980Z,28.75
2023-03-21T13:51:55.352Z,28.16
2023-03-21T13:54:51.542Z,27.26
2023-03-21T13:57:26.546Z,25.22
2023-03-21T14:00:25.744Z,23.43
2023-03-21T14:03:03.832Z,22.00
2023-03-21T14:05:37.883Z,21.42
2023-03-21T14:08:19.307Z,21.28
2023-03-21T14:10:50.333Z,21.56
2023-03-21T14:13:25.413Z,21.75
2023-03-21T14:16:05.651Z,21.07
2023-03-21T14:18:54.173Z,20.27
2023-03-21T14:21:25.464Z,18.76
2023-03-21T14:24:09.003Z,17.58
2023-03-21T14:26:47.050Z,15.61
2023-03-21T14:29:33.883Z,15.61
2023-03-21T14:32:06.510Z,14.55
2023-03-21T14:34:40.957Z,14.55
2023-03-21T14:37:13.786Z,14.24
2023-03-21T14:39:45.965Z,13.87
2023-03-21T14:42:19.832Z,13.57
2023-03-21T14:44:55.910Z,13.25
2023-03-21T14:47:29.076Z,13.08
2023-03-21T14:50:02.074Z,12.85
2023-03-21T14:52:35.717Z,12.68
2023-03-21T14:55:10.835Z,12.50
2023-03-21T14:57:43.981Z,12.32
2023-03-21T15:00:23.157Z,12.15
2023-03-21T15:02:57.645Z,12.02
2023-03-21T15:05:37.656Z,11.91
2023-03-21T15:08:16.164Z,11.79
2023-03-21T15:11:08.115Z,11.69
2023-03-21T15:13:36.456Z,11.59
2023-03-21T15:16:10.651Z,11.52
2023-03-21T15:18:44.315Z,11.44
2023-03-21T15:21:27.453Z,11.38
2023-03-21T15:24:02.394Z,11.32
2023-03-21T15:26:35.125Z,11.26
2023-03-21T15:29:08.562Z,11.28
2023-03-21T15:31:42.150Z,11.21
2023-03-21T15:34:27.688Z,11.16
2023-03-21T15:37:05.698Z,11.13
2023-03-21T15:39:37.807Z,11.10
2023-03-21T15:42:27.927Z,11.06
2023-03-21T15:45:03.247Z,11.00
2023-03-21T15:47:53.420Z,10.96
2023-03-21T15:50:29.704Z,10.94
2023-03-21T15:53:04.482Z,10.91
2023-03-21T15:55:39.719Z,10.94
2023-03-21T15:58:18.553Z,10.92
2023-03-21T16:00:59.839Z,10.90
2023-03-21T16:03:34.527Z,10.89
2023-03-21T16:06:15.589Z,10.89
2023-03-21T16:08:53.244Z,10.89
2023-03-21T16:11:28.527Z,10.88
2023-03-21T16:14:01.194Z,10.86
2023-03-21T16:16:33.892Z,10.85
2023-03-21T16:19:07.624Z,10.83
2023-03-21T16:21:40.325Z,10.81
2023-03-21T16:24:13.614Z,10.79
2023-03-21T16:26:51.647Z,10.75
2023-03-21T16:29:23.809Z,10.74
2023-03-21T16:31:56.429Z,10.72
2023-03-21T16:34:29.460Z,10.69
2023-03-21T16:37:01.430Z,10.69
2023-03-21T16:39:33.531Z,10.69
2023-03-21T16:42:05.941Z,10.70
2023-03-21T16:44:39.605Z,10.68
2023-03-21T16:47:17.826Z,10.68
2023-03-21T16:49:49.965Z,10.67
2023-03-21T16:52:23.961Z,10.62
2023-03-21T16:54:55.907Z,10.62
2023-03-21T16:57:28.502Z,10.59
2023-03-21T17:00:01.228Z,10.60
2023-03-21T17:02:33.839Z,10.55
2023-03-21T17:05:07.779Z,10.51
2023-03-21T17:07:40.035Z,10.45
2023-03-21T17:10:27.147Z,10.39
2023-03-21T17:12:59.147Z,10.36
2023-03-21T17:15:31.230Z,10.36
2023-03-21T17:18:03.429Z,10.33
2023-03-21T17:20:38.472Z,10.28
2023-03-21T17:23:11.055Z,10.26
2023-03-21T17:25:43.022Z,10.30
2023-03-21T17:28:15.169Z,10.34
2023-03-21T17:30:47.193Z,10.42
2023-03-21T17:33:19.568Z,10.30
2023-03-21T17:35:51.858Z,10.19
2023-03-21T17:38:23.944Z,10.14
2023-03-21T17:40:56.002Z,10.09
2023-03-21T17:43:28.029Z,9.99
2023-03-21T17:46:00.105Z,9.93
2023-03-21T17:48:32.335Z,9.74
2023-03-21T17:51:04.408Z,9.58
2023-03-21T17:53:36.345Z,9.39
2023-03-21T17:56:10.359Z,9.28
2023-03-21T17:58:42.404Z,9.17
2023-03-21T18:01:14.949Z,9.07
2023-03-21T18:03:47.234Z,9.22
2023-03-21T18:06:24.244Z,8.93
2023-03-21T18:08:56.344Z,8.77
2023-03-21T18:11:29.125Z,8.54
2023-03-21T18:14:15.446Z,8.37
2023-03-21T18:16:35.094Z,8.36
2023-03-21T18:19:07.487Z,8.29
2023-03-21T18:21:40.815Z,8.24
2023-03-21T18:24:12.678Z,8.22
2023-03-21T18:26:46.195Z,8.17
2023-03-21T18:30:17.495Z,8.19
2023-03-21T18:32:05.530Z,8.21
2023-03-21T18:34:27.962Z,8.08
2023-03-21T18:37:02.776Z,8.02
2023-03-21T18:39:34.778Z,8.04
2023-03-21T18:42:07.529Z,8.06
2023-03-21T18:44:42.264Z,8.09
2023-03-21T18:47:15.096Z,8.10
2023-03-21T18:50:12.415Z,8.12
2023-03-21T18:52:21.492Z,8.15
2023-03-21T18:54:54.522Z,8.23
2023-03-21T18:57:36.422Z,8.14
2023-03-21T19:00:01.537Z,8.11
2023-03-21T19:02:33.705Z,8.15
2023-03-21T19:05:06.225Z,8.09
2023-03-21T19:07:38.535Z,8.05
2023-03-21T19:10:20.002Z,8.13
2023-03-21T19:12:44.699Z,8.08
2023-03-21T19:15:19.265Z,8.08
2023-03-21T19:18:30.672Z,8.08
2023-03-21T19:20:25.048Z,8.27
2023-03-21T19:22:57.255Z,8.18
2023-03-21T19:25:29.234Z,8.16
2023-03-21T19:28:01.334Z,8.09
2023-03-21T19:30:34.148Z,8.05
2023-03-21T19:33:06.573Z,8.06
2023-03-21T19:35:40.956Z,8.02
2023-03-21T19:38:12.937Z,8.01
2023-03-21T19:40:45.221Z,8.23
2023-03-21T19:43:33.716Z,8.05
2023-03-21T19:45:51.752Z,8.03
2023-03-21T19:48:23.970Z,8.05
2023-03-21T19:53:30.998Z,8.06
2023-03-21T19:56:04.887Z,8.03
2023-03-21T19:58:36.831Z,8.00
2023-03-21T20:01:11.519Z,8.07
2023-03-21T20:03:44.920Z,8.02
2023-03-21T20:06:17.427Z,7.96
2023-03-21T20:09:27.651Z,7.93
2023-03-21T20:11:23.116Z,7.92
2023-03-21T20:13:55.328Z,7.94
2023-03-21T20:16:34.110Z,7.95
2023-03-21T20:19:01.726Z,7.94
2023-03-21T20:21:45.221Z,8.00
2023-03-21T20:24:07.782Z,7.90
2023-03-21T20:26:39.772Z,7.91
2023-03-21T20:30:05.491Z,7.86
2023-03-21T20:31:45.637Z,7.88
2023-03-21T20:34:18.241Z,7.86
2023-03-21T20:36:50.488Z,7.82
2023-03-21T20:39:22.596Z,7.77
2023-03-21T20:41:54.961Z,7.74
2023-03-21T20:44:57.419Z,7.73
2023-03-21T20:47:00.832Z,7.73
2023-03-21T20:49:33.634Z,7.72
2023-03-21T20:54:40.596Z,7.71
2023-03-21T20:57:12.518Z,7.67
2023-03-21T20:59:45.809Z,7.59
2023-03-21T21:02:18.044Z,7.57
2023-03-21T21:05:21.574Z,7.57
2023-03-21T21:07:26.419Z,7.56
2023-03-21T21:09:57.885Z,7.59
2023-03-21T21:12:29.456Z,7.76
2023-03-21T21:15:01.967Z,7.59
2023-03-21T21:18:02.012Z,7.54
2023-03-21T21:20:17.639Z,7.50
2023-03-21T21:23:00.429Z,7.68
2023-03-21T21:25:24.470Z,7.46
2023-03-21T21:27:56.629Z,7.44
2023-03-21T21:30:29.569Z,7.45
2023-03-21T21:33:01.529Z,7.48
2023-03-21T21:35:33.873Z,7.48
2023-03-21T21:38:05.765Z,7.47
2023-03-21T21:40:38.031Z,7.43
2023-03-21T21:43:11.791Z,7.44
2023-03-21T21:45:43.729Z,7.46
2023-03-21T21:48:16.224Z,7.45
2023-03-21T21:50:51.597Z,7.39
2023-03-21T21:53:24.082Z,7.40
2023-03-21T21:56:01.024Z,7.40
2023-03-21T21:58:37.268Z,7.47
2023-03-21T22:01:09.442Z,7.38
2023-03-21T22:03:41.632Z,7.33
2023-03-21T22:06:14.221Z,7.30
2023-03-21T22:08:47.204Z,7.33
2023-03-21T22:11:19.584Z,7.28
2023-03-21T22:13:51.773Z,7.29
2023-03-21T22:16:23.892Z,7.27
2023-03-21T22:18:56.056Z,7.26
2023-03-21T22:21:28.282Z,7.28
2023-03-21T22:24:00.249Z,7.30
2023-03-21T22:26:33.704Z,7.24
2023-03-21T22:29:07.490Z,7.25
2023-03-21T22:31:41.077Z,7.24
2023-03-21T22:34:13.133Z,7.24
2023-03-21T22:36:46.888Z,7.22
2023-03-21T22:39:20.146Z,7.19
2023-03-21T22:41:52.153Z,7.15
2023-03-21T22:44:24.738Z,7.14
2023-03-21T22:46:56.754Z,7.13
2023-03-21T22:49:28.818Z,7.14
2023-03-21T22:52:01.621Z,7.17
2023-03-21T22:54:33.887Z,7.14
2023-03-21T22:57:06.580Z,7.14
2023-03-21T22:59:38.755Z,7.16
2023-03-21T23:02:11.434Z,7.13
2023-03-21T23:04:43.883Z,7.12
2023-03-21T23:07:16.055Z,7.11
2023-03-21T23:09:48.271Z,7.11
2023-03-21T23:12:20.376Z,7.13
2023-03-21T23:14:52.316Z,7.11
2023-03-21T23:17:24.336Z,7.10
2023-03-21T23:19:56.741Z,7.12
2023-03-21T23:22:32.947Z,7.10
2023-03-21T23:25:05.367Z,7.09
2023-03-21T23:27:37.993Z,7.10
2023-03-21T23:30:11.882Z,7.14
2023-03-21T23:32:44.007Z,7.10
2023-03-21T23:35:16.358Z,7.11
2023-03-21T23:37:49.897Z,7.09
2023-03-21T23:40:22.346Z,7.06
2023-03-21T23:42:54.244Z,7.07
2023-03-21T23:45:26.389Z,7.06
2023-03-21T23:48:04.682Z,7.04
2023-03-21T23:50:37.336Z,7.04
2023-03-21T23:53:09.722Z,7.09
2023-03-21T23:55:42.326Z,7.01
2023-03-21T23:58:14.893Z,6.97
